Time;durP1;ratioP1;P1;durP2;ratioP2;P2;SDS_P1;SDS_P2;PMS_P1;PMS_P2;Temp;Humidity;BMP_temperature;BMP_pressure;BME280_temperature;BME280_humidity;BME280_pressure;Samples;Min_cycle;Max_cycle;Signal;HPM_P1;HPM_P2
2022/02/02 00:04:51;;;;;;;4.22;1.98;;;;;;;4.74;83.71;97169.34;5016602;28;20057;-63
2022/02/02 00:09:56;;;;;;;5.57;1.90;;;;;;;4.74;83.71;97155.94;5065792;28;20176;-62
2022/02/02 00:12:38;;;;;;;11.07;3.20;;;;;;;4.73;83.97;97161.50;5076277;28;20098;-62
2022/02/02 00:22:37;;;;;;;4.72;1.80;;;;;;;4.85;84.34;97165.13;5080568;28;20047;-62
2022/02/02 00:25:21;;;;;;;9.95;2.80;;;;;;;4.85;84.44;97166.97;5083599;28;20731;-63
2022/02/02 00:27:53;;;;;;;7.10;3.03;;;;;;;4.81;84.57;97171.97;5086214;28;20442;-62
2022/02/02 00:30:23;;;;;;;6.07;2.20;;;;;;;4.84;84.60;97168.84;5082629;28;20048;-63
2022/02/02 00:35:21;;;;;;;4.55;2.10;;;;;;;4.94;84.04;97179.09;5092072;28;20131;-62
2022/02/02 00:37:48;;;;;;;6.15;2.03;;;;;;;4.99;83.58;97179.25;5083083;28;20064;-62
2022/02/02 00:40:14;;;;;;;7.90;2.70;;;;;;;4.93;83.81;97180.09;5083619;28;20075;-62
2022/02/02 00:42:44;;;;;;;6.95;2.40;;;;;;;4.92;83.37;97160.53;5073308;28;20040;-61
2022/02/02 00:45:11;;;;;;;8.15;2.85;;;;;;;4.89;83.45;97144.88;5096198;28;20535;-62
2022/02/02 00:47:39;;;;;;;7.35;2.47;;;;;;;4.91;82.74;97140.09;5081973;28;20192;-62
2022/02/02 00:50:06;;;;;;;3.95;1.65;;;;;;;4.90;82.39;97130.41;5082139;28;20048;-61
2022/02/02 00:52:33;;;;;;;5.95;2.78;;;;;;;4.81;82.30;97131.72;5080998;28;20040;-62
2022/02/02 00:54:59;;;;;;;6.70;2.20;;;;;;;4.87;81.98;97138.09;5091385;28;20052;-63
2022/02/02 00:57:28;;;;;;;3.60;1.92;;;;;;;4.81;81.64;97161.25;5079896;28;20047;-62
2022/02/02 00:59:56;;;;;;;4.22;1.52;;;;;;;4.85;81.59;97162.44;5092114;28;20460;-62
2022/02/02 01:02:24;;;;;;;5.68;1.48;;;;;;;4.91;81.65;97166.91;5081652;28;20051;-63
2022/02/02 01:04:50;;;;;;;4.00;1.48;;;;;;;4.92;81.79;97154.31;5095345;28;20070;-62
2022/02/02 01:09:54;;;;;;;3.75;1.52;;;;;;;5.00;82.09;97177.38;5085079;28;20052;-62
2022/02/02 01:12:49;;;;;;;4.90;1.95;;;;;;;5.06;81.92;97189.91;5073894;28;20047;-63
2022/02/02 01:28:13;;;;;;;6.97;1.83;;;;;;;5.12;82.41;97196.28;5083903;28;20048;-62
2022/02/02 01:30:40;;;;;;;4.50;1.85;;;;;;;5.07;83.02;97188.88;5084901;28;20045;-63
2022/02/02 01:33:07;;;;;;;6.22;1.70;;;;;;;5.16;83.26;97197.47;5073201;28;20052;-63
2022/02/02 01:35:33;;;;;;;7.82;2.95;;;;;;;5.15;83.68;97201.16;5072835;28;20048;-62
2022/02/02 01:38:00;;;;;;;6.65;2.63;;;;;;;5.20;83.75;97196.78;5078315;28;20040;-63
2022/02/02 01:40:32;;;;;;;6.30;2.58;;;;;;;5.19;83.46;97181.72;5066311;28;20045;-63
2022/02/02 01:43:10;;;;;;;5.28;2.55;;;;;;;5.17;83.37;97199.91;5085894;28;20040;-62
2022/02/02 01:45:50;;;;;;;7.60;3.47;;;;;;;5.19;83.19;97195.16;5084631;28;20040;-63
2022/02/02 01:48:39;;;;;;;6.30;2.85;;;;;;;5.22;83.04;97210.00;5082605;28;20160;-62
2022/02/02 01:56:08;;;;;;;8.30;3.03;;;;;;;5.16;83.31;97205.53;5064915;28;20052;-63
2022/02/02 02:01:03;;;;;;;6.25;3.03;;;;;;;5.23;83.56;97208.94;5096583;28;20040;-62
2022/02/02 02:03:30;;;;;;;6.13;2.95;;;;;;;5.34;83.39;97215.44;5072470;28;20045;-62
2022/02/02 02:05:57;;;;;;;7.88;3.42;;;;;;;5.34;83.75;97204.69;5070841;28;20044;-62
2022/02/02 02:08:25;;;;;;;9.40;4.32;;;;;;;5.29;83.95;97196.50;5081872;28;20598;-64
2022/02/02 02:10:52;;;;;;;8.02;3.47;;;;;;;5.28;83.93;97214.50;5085837;28;20194;-62
2022/02/02 02:13:41;;;;;;;13.77;5.13;;;;;;;5.24;84.40;97215.97;5085022;28;20052;-63
2022/02/02 02:16:06;;;;;;;12.95;5.13;;;;;;;5.30;84.00;97225.81;5084378;28;20052;-63
2022/02/02 02:18:33;;;;;;;7.40;3.53;;;;;;;5.35;83.53;97241.28;5085926;28;20085;-62
2022/02/02 02:20:59;;;;;;;12.68;4.30;;;;;;;5.42;83.38;97222.41;5084997;28;20048;-63
2022/02/02 02:23:26;;;;;;;11.18;4.22;;;;;;;5.42;83.20;97225.91;5069813;28;20048;-62
2022/02/02 02:25:53;;;;;;;12.38;3.95;;;;;;;5.49;83.07;97241.94;5080582;28;20109;-63
2022/02/02 02:30:57;;;;;;;9.23;4.43;;;;;;;5.54;83.02;97239.44;5084585;28;20499;-62
2022/02/02 02:57:44;;;;;;;10.48;3.35;;;;;;;5.31;83.33;97224.78;5085224;28;20462;-63
2022/02/02 03:50:05;;;;;;;9.13;2.00;;;;;;;5.37;79.63;97244.53;5085425;28;20044;-63
2022/02/02 03:55:28;;;;;;;8.20;2.28;;;;;;;5.25;80.16;97249.81;5090059;28;20052;-61
2022/02/02 04:05:54;;;;;;;4.82;1.80;;;;;;;5.27;80.82;97285.31;5085284;28;20044;-62
2022/02/02 04:10:49;;;;;;;5.97;2.15;;;;;;;5.39;80.35;97284.59;5087029;28;20047;-63
2022/02/02 04:51:27;;;;;;;8.93;3.00;;;;;;;5.17;81.08;97275.06;5086970;28;20028;-62
2022/02/02 04:54:18;;;;;;;4.53;1.90;;;;;;;4.93;81.10;97301.69;5079291;28;20173;-63
2022/02/02 04:57:21;;;;;;;5.45;1.98;;;;;;;4.98;80.98;97287.63;5086360;28;20499;-63
2022/02/02 05:07:32;;;;;;;7.85;2.10;;;;;;;4.89;81.47;97280.84;5086522;28;20503;-62
2022/02/02 05:10:21;;;;;;;8.55;2.28;;;;;;;4.89;81.44;97286.22;5065868;28;20153;-63
2022/02/02 05:18:22;;;;;;;12.30;3.03;;;;;;;4.81;81.39;97298.06;5091848;28;20040;-62
2022/02/02 05:52:55;;;;;;;9.15;2.60;;;;;;;5.11;78.89;97358.31;5091157;28;20039;-66
2022/02/02 05:55:22;;;;;;;9.10;2.33;;;;;;;5.16;78.88;97353.16;5091484;28;20048;-67
2022/02/02 05:57:49;;;;;;;6.78;2.30;;;;;;;5.16;78.79;97345.09;5069949;28;20036;-69
2022/02/02 06:00:16;;;;;;;9.00;2.65;;;;;;;5.21;78.96;97342.56;5096257;28;20031;-66
2022/02/02 06:02:47;;;;;;;7.53;2.10;;;;;;;5.20;78.03;97347.13;5090231;28;20407;-66
2022/02/02 06:05:14;;;;;;;14.27;2.50;;;;;;;5.25;78.01;97340.25;5065521;28;20646;-67
2022/02/02 06:07:42;;;;;;;10.93;2.53;;;;;;;5.17;78.39;97344.06;5076077;28;20040;-69
2022/02/02 06:10:14;;;;;;;9.88;3.05;;;;;;;5.17;78.63;97342.16;5085418;28;20070;-69
2022/02/02 06:12:42;;;;;;;13.07;2.42;;;;;;;5.16;78.74;97342.41;5085378;28;20036;-67
2022/02/02 06:15:12;;;;;;;9.57;2.63;;;;;;;5.20;78.70;97354.38;5080959;28;20039;-68
2022/02/02 06:17:44;;;;;;;6.03;2.17;;;;;;;5.19;79.29;97350.00;5085728;28;20043;-70
2022/02/02 06:20:11;;;;;;;11.20;3.35;;;;;;;5.16;79.13;97361.19;5073944;28;21670;-70
2022/02/02 06:22:47;;;;;;;10.27;2.70;;;;;;;5.17;78.90;97368.22;5071698;28;20039;-67
2022/02/02 06:25:27;;;;;;;10.43;2.45;;;;;;;5.14;79.41;97374.00;5078637;28;20568;-66
2022/02/02 06:27:58;;;;;;;10.43;2.35;;;;;;;5.13;79.64;97372.38;5082187;28;20052;-68
2022/02/02 06:30:27;;;;;;;11.90;3.03;;;;;;;5.18;79.45;97368.00;5082645;28;20510;-66
2022/02/02 06:33:02;;;;;;;13.57;2.33;;;;;;;5.10;80.14;97368.25;5093686;28;20064;-71
2022/02/02 06:35:29;;;;;;;9.57;2.03;;;;;;;5.05;80.21;97378.81;5087569;28;20538;-68
2022/02/02 06:37:56;;;;;;;10.55;2.58;;;;;;;5.10;80.29;97395.09;5083085;28;20055;-67
2022/02/02 06:40:23;;;;;;;12.13;3.65;;;;;;;5.08;80.42;97386.41;5090292;28;20044;-66
2022/02/02 06:42:51;;;;;;;10.07;2.80;;;;;;;5.04;80.76;97382.53;5092062;28;20040;-68
2022/02/02 06:45:18;;;;;;;8.60;2.25;;;;;;;5.08;80.61;97383.75;5085937;28;20055;-67
2022/02/02 06:47:46;;;;;;;6.45;2.30;;;;;;;5.09;80.70;97377.34;5096202;28;20047;-67
2022/02/02 06:52:59;;;;;;;9.57;3.00;;;;;;;5.06;81.17;97381.25;5086513;28;20089;-68
2022/02/02 06:55:38;;;;;;;9.82;2.78;;;;;;;5.05;81.06;97398.41;5086589;28;20051;-69
2022/02/02 06:58:16;;;;;;;10.02;2.47;;;;;;;5.05;81.02;97419.09;5087005;28;20039;-67
2022/02/02 07:00:59;;;;;;;5.28;2.08;;;;;;;5.04;80.56;97420.09;5093486;28;20046;-66
2022/02/02 07:04:09;;;;;;;11.45;2.75;;;;;;;5.02;80.90;97423.00;5069270;28;20094;-69
2022/02/02 07:06:53;;;;;;;12.20;2.95;;;;;;;4.96;81.29;97431.91;5086096;28;20043;-66
2022/02/02 07:09:42;;;;;;;7.47;2.50;;;;;;;5.03;81.23;97437.25;5083381;28;20267;-67
2022/02/02 07:12:30;;;;;;;7.50;2.47;;;;;;;4.92;82.07;97442.25;5081409;28;20054;-68
2022/02/02 07:15:12;;;;;;;13.02;3.88;;;;;;;4.92;82.50;97430.69;5084764;28;20337;-69
2022/02/02 07:18:06;;;;;;;;;;;;;;;4.84;83.24;97420.22;5080377;28;20048;-67
2022/02/02 07:20:39;;;;;;;10.88;2.60;;;;;;;4.90;83.34;97448.88;5091074;28;19992;-68
2022/02/02 07:23:25;;;;;;;12.65;2.83;;;;;;;4.91;83.41;97451.31;5095338;28;20634;-70
2022/02/02 07:28:29;;;;;;;14.48;3.75;;;;;;;4.89;84.05;97457.94;5080658;28;20538;-68
2022/02/02 07:31:09;;;;;;;15.27;3.10;;;;;;;4.93;83.68;97454.63;5085247;28;20121;-68
2022/02/02 07:33:43;;;;;;;12.13;3.40;;;;;;;5.03;82.83;97464.91;5085138;28;20047;-67
2022/02/02 07:36:25;;;;;;;15.73;3.30;;;;;;;5.04;82.92;97453.13;5084887;28;20210;-67
2022/02/02 07:39:00;;;;;;;9.95;2.78;;;;;;;5.12;81.92;97457.41;5073424;28;20074;-66
2022/02/02 07:41:34;;;;;;;13.75;4.07;;;;;;;5.16;82.11;97436.38;5086074;28;20063;-66
2022/02/02 07:44:13;;;;;;;11.80;3.25;;;;;;;5.20;81.57;97427.66;5069375;28;20105;-65
2022/02/02 07:46:49;;;;;;;13.95;3.15;;;;;;;5.28;80.96;97455.28;5086094;28;20523;-67
2022/02/02 07:49:17;;;;;;;9.98;2.47;;;;;;;5.37;79.70;97437.88;5086048;28;20105;-66
2022/02/02 07:51:50;;;;;;;15.75;4.35;;;;;;;5.32;79.96;97451.97;5086666;28;20052;-66
2022/02/02 07:54:24;;;;;;;9.70;3.13;;;;;;;5.32;79.93;97451.13;5083241;28;20040;-67
2022/02/02 07:57:14;;;;;;;12.05;3.13;;;;;;;5.33;79.87;97450.09;5085098;28;20048;-66
2022/02/02 08:00:19;;;;;;;9.73;3.22;;;;;;;5.37;80.05;97455.84;5099184;28;20431;-67
2022/02/02 08:05:29;;;;;;;13.25;3.45;;;;;;;5.26;80.57;97462.72;5093638;28;20052;-67
2022/02/02 08:10:27;;;;;;;12.05;3.55;;;;;;;5.24;81.41;97481.75;5095077;28;20043;-66
2022/02/02 08:13:00;;;;;;;10.73;3.15;;;;;;;5.25;81.64;97485.25;5085084;28;20081;-66
2022/02/02 08:15:31;;;;;;;12.50;2.95;;;;;;;5.24;81.73;97479.06;5086036;28;20079;-68
2022/02/02 08:17:58;;;;;;;9.50;2.83;;;;;;;5.31;82.30;97470.97;5085826;28;20048;-66
2022/02/02 08:20:25;;;;;;;7.85;2.80;;;;;;;5.25;82.60;97474.50;5085969;28;20184;-69
2022/02/02 08:22:52;;;;;;;11.90;3.35;;;;;;;5.18;82.53;97483.44;5086222;28;20044;-66
2022/02/02 08:25:27;;;;;;;15.00;4.22;;;;;;;5.14;82.66;97490.25;5085261;28;20044;-68
2022/02/02 08:27:57;;;;;;;13.48;4.03;;;;;;;5.04;83.20;97492.56;5085156;28;20097;-67
2022/02/02 08:30:27;;;;;;;14.45;3.75;;;;;;;5.04;83.35;97492.56;5071633;28;20550;-66
2022/02/02 08:32:59;;;;;;;13.60;4.80;;;;;;;5.05;83.17;97508.44;5085400;28;20052;-68
2022/02/02 08:35:30;;;;;;;13.38;3.13;;;;;;;5.19;81.69;97511.91;5085275;28;20098;-66
2022/02/02 08:38:33;;;;;;;16.65;2.67;;;;;;;5.33;80.74;97512.69;5085062;28;20054;-68
2022/02/02 08:43:24;;;;;;;11.40;3.58;;;;;;;5.40;81.27;97519.84;5081597;28;20044;-66
2022/02/02 08:45:56;;;;;;;9.05;2.35;;;;;;;5.49;79.82;97507.81;5073394;28;20047;-67
2022/02/02 08:48:26;;;;;;;10.68;2.58;;;;;;;5.44;80.48;97511.16;5085343;28;20059;-66
2022/02/02 08:51:01;;;;;;;9.27;2.83;;;;;;;5.41;80.09;97516.13;5084295;28;20059;-67
2022/02/02 08:53:34;;;;;;;11.45;3.10;;;;;;;5.44;80.77;97515.72;5087226;28;20036;-67
2022/02/02 09:00:58;;;;;;;10.50;3.00;;;;;;;5.47;80.81;97526.03;5105043;28;20058;-67
2022/02/02 09:06:12;;;;;;;9.35;3.10;;;;;;;5.51;80.12;97527.25;5094621;28;20040;-68
2022/02/02 09:08:40;;;;;;;9.32;2.38;;;;;;;5.48;80.26;97535.72;5081030;28;20039;-67
2022/02/02 09:35:24;;;;;;;11.82;3.05;;;;;;;5.56;80.29;97567.72;5084570;28;20547;-70
2022/02/02 09:37:51;;;;;;;12.40;3.80;;;;;;;5.63;79.72;97574.94;5083773;28;20058;-70
2022/02/02 09:43:03;;;;;;;12.90;3.50;;;;;;;5.78;78.91;97588.88;5069229;28;20048;-67
2022/02/02 09:45:33;;;;;;;10.52;2.90;;;;;;;5.92;78.39;97602.22;5083590;28;20054;-67
2022/02/02 09:48:14;;;;;;;13.48;4.38;;;;;;;5.91;78.58;97604.09;5082032;28;20050;-68
2022/02/02 09:50:50;;;;;;;27.67;6.55;;;;;;;6.14;77.93;97607.28;5082503;28;20060;-66
2022/02/02 09:53:43;;;;;;;30.42;8.95;;;;;;;6.09;77.62;97606.06;5095610;28;20048;-67
2022/02/02 09:56:24;;;;;;;12.13;3.17;;;;;;;5.93;78.86;97626.19;5082337;28;20696;-66
2022/02/02 10:05:16;;;;;;;11.90;3.83;;;;;;;5.13;84.10;97622.84;5083753;28;20059;-69
2022/02/02 10:08:24;;;;;;;18.23;6.38;;;;;;;5.19;85.34;97623.81;5072453;28;20044;-67
2022/02/02 10:11:02;;;;;;;15.43;3.78;;;;;;;5.34;84.14;97632.47;5083963;28;20056;-66
2022/02/02 10:16:17;;;;;;;12.23;4.20;;;;;;;5.50;82.33;97646.47;5082837;28;20044;-69
2022/02/02 10:18:44;;;;;;;17.15;4.45;;;;;;;5.57;83.01;97665.25;5083753;28;20511;-69
2022/02/02 10:21:11;;;;;;;12.75;4.15;;;;;;;5.57;82.06;97658.00;5083327;28;20043;-66
2022/02/02 10:23:42;;;;;;;17.55;4.82;;;;;;;5.73;82.00;97650.50;5083615;28;20477;-67
2022/02/02 10:26:20;;;;;;;16.15;4.00;;;;;;;5.83;81.24;97656.22;5082929;28;20044;-68
2022/02/02 10:28:53;;;;;;;10.82;3.47;;;;;;;5.96;80.04;97649.13;5074263;28;20143;-67
2022/02/02 10:31:19;;;;;;;11.57;3.72;;;;;;;6.01;80.59;97648.50;5082324;28;20036;-66
2022/02/02 10:33:46;;;;;;;12.82;3.88;;;;;;;6.03;78.63;97644.59;5083404;28;20040;-68
2022/02/02 10:36:25;;;;;;;12.82;3.78;;;;;;;6.06;79.45;97662.97;5080752;28;20040;-67
2022/02/02 10:39:00;;;;;;;11.70;3.80;;;;;;;6.09;78.67;97651.78;5082448;28;20076;-67
2022/02/02 10:42:01;;;;;;;11.02;3.63;;;;;;;6.09;80.47;97648.28;5083913;28;20055;-68
2022/02/02 10:44:38;;;;;;;13.88;3.80;;;;;;;6.10;78.95;97660.69;5082720;28;20605;-68
2022/02/02 10:47:21;;;;;;;16.60;4.30;;;;;;;6.03;79.58;97636.53;5083695;28;20040;-69
2022/02/02 10:52:41;;;;;;;12.50;3.72;;;;;;;6.35;77.39;97647.25;5083081;28;20089;-69
2022/02/02 11:06:40;;;;;;;29.02;6.32;;;;;;;6.43;75.93;97639.97;5075224;28;20519;-68
2022/02/02 11:09:15;;;;;;;18.90;3.70;;;;;;;6.36;76.10;97627.41;5083074;28;20048;-66
2022/02/02 11:11:50;;;;;;;11.88;2.72;;;;;;;6.54;75.15;97627.69;5083143;28;20055;-69
2022/02/02 11:14:36;;;;;;;11.15;2.63;;;;;;;6.72;74.16;97629.63;5081814;28;20040;-67
2022/02/02 11:17:19;;;;;;;12.50;4.20;;;;;;;6.94;74.75;97631.91;5081790;28;20044;-67
2022/02/02 11:19:48;;;;;;;10.20;3.78;;;;;;;7.24;75.04;97634.72;5082882;28;20056;-66
2022/02/02 11:22:32;;;;;;;13.35;2.70;;;;;;;7.23;71.54;97643.81;5082749;28;20090;-67
2022/02/02 11:25:21;;;;;;;12.00;3.42;;;;;;;7.08;72.42;97644.16;5082432;28;20051;-67
2022/02/02 11:27:50;;;;;;;5.82;2.28;;;;;;;7.03;72.03;97630.56;5084380;28;20287;-69
2022/02/02 11:30:23;;;;;;;25.60;7.85;;;;;;;6.87;74.14;97648.13;5086733;28;20036;-67
2022/02/02 11:33:17;;;;;;;10.95;3.60;;;;;;;7.00;72.51;97639.06;5087236;28;20441;-67
2022/02/02 11:38:31;;;;;;;12.95;3.88;;;;;;;7.19;73.63;97636.41;5086696;28;20415;-68
2022/02/02 11:41:11;;;;;;;11.45;2.97;;;;;;;7.24;70.50;97645.47;5086123;28;20265;-67
2022/02/02 11:43:48;;;;;;;8.07;2.10;;;;;;;7.20;71.28;97640.75;5086959;28;20047;-66
2022/02/02 11:47:07;;;;;;;11.40;2.63;;;;;;;6.99;73.78;97638.28;5084618;28;20122;-69
2022/02/02 11:50:02;;;;;;;14.55;3.22;;;;;;;7.10;73.09;97668.19;5092821;28;20530;-69
2022/02/02 11:52:51;;;;;;;10.55;3.47;;;;;;;7.44;71.83;97657.09;5084867;28;20036;-69
2022/02/02 11:55:20;;;;;;;12.85;3.33;;;;;;;7.45;70.82;97659.56;5085922;28;20056;-69
2022/02/02 11:58:16;;;;;;;12.18;2.95;;;;;;;7.42;68.85;97655.41;5086217;28;20557;-69
2022/02/02 12:03:49;;;;;;;11.45;2.10;;;;;;;7.50;71.02;97648.09;5086365;28;20093;-68
2022/02/02 12:06:44;;;;;;;10.63;2.78;;;;;;;7.42;69.57;97635.75;5078879;28;20094;-69
2022/02/02 12:47:56;;;;;;;10.55;3.10;;;;;;;6.31;79.46;97693.66;5085086;28;20062;-67
2022/02/02 12:58:33;;;;;;;18.02;4.07;;;;;;;5.79;84.01;97698.00;5085812;28;20047;-65
2022/02/02 13:01:10;;;;;;;13.57;3.58;;;;;;;5.70;85.38;97696.59;5083956;28;20589;-66
2022/02/02 13:03:38;;;;;;;15.80;5.18;;;;;;;5.59;87.02;97706.13;5081943;28;20048;-65
2022/02/02 13:06:21;;;;;;;11.50;3.30;;;;;;;5.58;85.98;97717.91;5083615;28;20403;-66
2022/02/02 13:08:49;;;;;;;11.80;3.10;;;;;;;5.53;85.83;97713.16;5087645;28;20055;-65
2022/02/02 13:11:31;;;;;;;7.35;2.40;;;;;;;5.47;86.19;97714.03;5087165;28;20067;-65
2022/02/02 13:14:06;;;;;;;8.57;2.90;;;;;;;5.36;87.33;97718.19;5086315;28;20055;-65
2022/02/02 13:16:33;;;;;;;10.63;3.60;;;;;;;5.09;86.86;97712.88;5073243;28;20036;-65
2022/02/02 13:19:17;;;;;;;8.52;2.65;;;;;;;5.13;89.20;97743.63;5086785;28;20670;-65
2022/02/02 13:21:54;;;;;;;18.92;6.32;;;;;;;5.05;87.97;97747.31;5087119;28;20039;-65
2022/02/02 13:24:26;;;;;;;5.32;1.98;;;;;;;5.02;86.41;97745.03;5086646;28;20050;-65
2022/02/02 13:27:08;;;;;;;8.90;4.03;;;;;;;4.84;86.83;97760.94;5086516;28;20044;-65
2022/02/02 13:29:43;;;;;;;;;;;;;;;4.84;87.28;97767.16;5086887;28;20131;-65
2022/02/02 13:32:19;;;;;;;8.27;2.63;;;;;;;4.54;87.99;97757.59;5086482;28;19935;-67
2022/02/02 13:35:06;;;;;;;5.68;2.33;;;;;;;4.65;88.15;97761.53;5084362;28;20040;-65
2022/02/02 13:49:29;;;;;;;11.93;3.80;;;;;;;5.59;84.40;97779.50;5084893;28;20199;-65
2022/02/02 13:52:20;;;;;;;20.83;8.73;;;;;;;5.53;85.72;97780.31;5083012;28;20639;-66
2022/02/02 13:55:36;;;;;;;10.23;3.95;;;;;;;5.54;85.68;97775.78;5075615;28;20712;-66
2022/02/02 13:58:39;;;;;;;14.32;6.28;;;;;;;5.64;85.47;97780.72;5073321;28;20044;-68
2022/02/02 14:01:17;;;;;;;9.73;3.45;;;;;;;5.60;85.56;97785.69;5072130;28;20580;-66
2022/02/02 14:25:36;;;;;;;12.60;3.50;;;;;;;5.58;85.91;97799.34;5083826;28;20070;-65
2022/02/02 14:26:06;;;;;;;13.98;4.18;;;;;;;5.65;85.57;97818.16;5065627;28;20047;-68
2022/02/02 14:31:14;;;;;;;14.35;3.25;;;;;;;5.64;84.75;97808.41;5084585;28;20677;-67
2022/02/02 14:33:59;;;;;;;12.55;3.67;;;;;;;5.59;85.34;97806.38;5082241;28;20074;-67
2022/02/02 14:36:31;;;;;;;12.80;3.65;;;;;;;5.60;84.83;97810.69;5085180;28;20042;-65
2022/02/02 14:44:17;;;;;;;14.23;3.22;;;;;;;5.67;83.99;97796.41;5086149;28;20090;-69
2022/02/02 14:47:11;;;;;;;15.55;3.45;;;;;;;5.67;83.58;97808.00;5084870;28;20048;-68
2022/02/02 14:52:45;;;;;;;10.13;3.08;;;;;;;5.62;84.04;97820.41;5085498;28;20419;-69
2022/02/02 15:27:40;;;;;;;6.50;2.72;;;;;;;5.49;85.34;97834.69;5088808;28;20043;-66
2022/02/02 15:30:26;;;;;;;11.10;2.90;;;;;;;5.45;85.73;97839.63;5089227;28;20036;-65
2022/02/02 15:32:55;;;;;;;5.40;2.15;;;;;;;5.50;85.82;97839.00;5087077;28;20036;-66
2022/02/02 15:35:24;;;;;;;7.72;2.20;;;;;;;5.48;85.16;97849.97;5089220;28;20036;-67
2022/02/02 15:40:38;;;;;;;8.15;2.78;;;;;;;5.60;84.84;97851.00;5088988;28;20044;-68
2022/02/02 15:43:24;;;;;;;4.60;2.35;;;;;;;5.47;85.16;97851.84;5088663;28;20418;-66
2022/02/02 16:04:56;;;;;;;5.63;2.80;;;;;;;5.39;85.79;97870.00;5085839;28;20185;-66
2022/02/02 16:07:27;;;;;;;10.95;3.45;;;;;;;5.37;86.35;97869.38;5085312;28;20155;-66
2022/02/02 16:09:58;;;;;;;6.60;2.70;;;;;;;5.39;85.77;97870.00;5086147;28;20047;-66
2022/02/02 16:12:30;;;;;;;11.55;3.47;;;;;;;5.43;85.60;97871.25;5086418;28;20048;-68
2022/02/02 16:15:31;;;;;;;;;;;;;;;5.42;85.60;97878.47;5085762;28;20259;-68
2022/02/02 16:36:35;;;;;;;5.78;2.20;;;;;;;5.40;85.56;97899.34;5086685;28;20051;-66
2022/02/02 16:39:16;;;;;;;6.75;2.55;;;;;;;5.32;85.93;97892.31;5067873;28;20762;-67
2022/02/02 16:44:28;;;;;;;6.95;2.10;;;;;;;5.29;86.04;97899.94;5087208;28;20290;-66
2022/02/02 16:46:55;;;;;;;8.35;2.67;;;;;;;5.26;86.14;97900.34;5076803;28;20094;-69
2022/02/02 16:49:21;;;;;;;6.72;2.40;;;;;;;5.24;86.41;97905.94;5072820;28;20047;-69
2022/02/02 16:51:48;;;;;;;6.43;2.10;;;;;;;5.23;86.44;97909.63;5087657;28;20044;-65
2022/02/02 16:54:25;;;;;;;7.07;2.15;;;;;;;5.25;86.25;97902.22;5087502;28;20050;-65
2022/02/02 17:34:39;;;;;;;3.75;2.15;;;;;;;5.10;88.41;97934.63;5086812;28;20453;-66
2022/02/02 17:38:02;;;;;;;4.22;2.40;;;;;;;5.03;88.29;97936.44;5077323;28;20048;-67
2022/02/02 17:40:08;;;;;;;6.32;3.17;;;;;;;5.04;88.66;97938.94;5084783;28;20052;-68
2022/02/02 18:20:39;;;;;;;6.18;2.08;;;;;;;5.04;88.45;97967.63;5092149;28;20040;-66
2022/02/02 18:35:33;;;;;;;3.53;1.90;;;;;;;4.93;88.02;97966.34;5079975;28;20096;-65
2022/02/02 18:39:06;;;;;;;5.03;2.70;;;;;;;4.75;88.38;97962.34;5078722;28;20041;-62
2022/02/02 18:53:47;;;;;;;4.65;2.72;;;;;;;4.77;89.88;97975.56;5080794;28;20050;-61
2022/02/02 18:59:12;;;;;;;4.38;2.70;;;;;;;4.82;89.05;97984.69;5098512;28;20157;-59
2022/02/02 19:02:00;;;;;;;5.32;2.80;;;;;;;4.81;88.91;97987.56;5078824;28;20048;-61
2022/02/02 19:04:47;;;;;;;5.45;2.90;;;;;;;4.75;89.27;97985.69;5083405;28;20043;-61
2022/02/02 19:31:05;;;;;;;6.20;3.25;;;;;;;4.78;89.47;97988.78;5077960;28;20466;-62
2022/02/02 19:55:16;;;;;;;3.20;1.77;;;;;;;4.87;90.02;98005.53;5081729;28;20040;-62
2022/02/02 19:56:59;;;;;;;5.45;2.30;;;;;;;4.77;90.10;98010.44;5078779;28;20064;-62
2022/02/02 20:12:24;;;;;;;4.15;2.05;;;;;;;4.81;90.94;98015.22;5094413;28;20047;-59
2022/02/02 20:14:51;;;;;;;7.00;3.20;;;;;;;4.77;90.58;98013.13;5089455;28;20551;-61
2022/02/02 20:17:21;;;;;;;5.95;2.80;;;;;;;4.81;90.70;98009.03;5081109;28;20035;-61
2022/02/02 20:19:53;;;;;;;5.15;3.00;;;;;;;4.69;90.96;98023.00;5084701;28;20446;-61
2022/02/02 20:22:23;;;;;;;6.15;2.92;;;;;;;4.79;90.89;98025.31;5083499;28;20130;-59
2022/02/02 20:24:58;;;;;;;4.45;1.85;;;;;;;4.85;90.66;98028.22;5092025;28;20055;-62
2022/02/02 20:27:26;;;;;;;4.25;2.50;;;;;;;4.91;90.19;98028.25;5084869;28;20052;-62
2022/02/02 20:29:53;;;;;;;5.22;2.85;;;;;;;4.92;90.64;98029.09;5094303;28;20480;-61
2022/02/02 20:32:19;;;;;;;7.15;3.90;;;;;;;4.82;91.70;98032.97;5092449;28;20665;-62
2022/02/02 20:34:46;;;;;;;7.85;3.60;;;;;;;4.86;91.79;98032.59;5094445;28;20554;-62
2022/02/02 20:37:16;;;;;;;6.28;2.90;;;;;;;4.85;92.08;98033.59;5100432;28;20062;-61
2022/02/02 20:40:03;;;;;;;6.15;3.17;;;;;;;4.98;91.65;98024.78;5080217;28;20118;-61
2022/02/02 20:42:38;;;;;;;4.47;2.58;;;;;;;5.07;91.43;98023.59;5073071;28;20047;-61
2022/02/02 20:45:29;;;;;;;6.22;3.28;;;;;;;5.06;91.20;98024.63;5099294;28;20056;-62
2022/02/02 21:06:59;;;;;;;6.05;3.78;;;;;;;5.04;91.75;98014.09;5078836;28;20052;-62
2022/02/02 21:14:57;;;;;;;66.82;27.60;;;;;;;4.90;93.13;98023.13;5084970;28;20552;-62
2022/02/02 21:17:26;;;;;;;19.73;8.90;;;;;;;4.86;93.27;98022.66;5082740;28;20510;-61
2022/02/02 21:20:07;;;;;;;14.88;7.18;;;;;;;4.92;93.31;98029.09;5080155;28;20055;-61
2022/02/02 21:22:44;;;;;;;12.13;5.65;;;;;;;4.97;93.38;98029.31;5083988;28;20553;-60
2022/02/02 21:27:57;;;;;;;13.00;8.50;;;;;;;5.01;93.55;98025.22;5085962;28;20595;-62
2022/02/02 21:30:25;;;;;;;7.03;3.92;;;;;;;5.07;93.21;98024.44;5090306;28;20098;-61
2022/02/02 21:32:51;;;;;;;6.45;4.22;;;;;;;5.08;92.79;98028.75;5079747;28;20044;-62
2022/02/02 21:35:18;;;;;;;6.72;4.47;;;;;;;5.08;92.77;98028.75;5071938;28;20044;-61
2022/02/02 21:37:47;;;;;;;7.13;4.53;;;;;;;5.10;92.79;98017.00;5093033;28;20056;-62
2022/02/02 21:40:51;;;;;;;10.02;4.38;;;;;;;5.21;92.39;98022.59;5075518;28;20754;-61
2022/02/02 21:43:06;;;;;;;8.48;5.07;;;;;;;4.97;92.91;98021.28;5078974;28;20062;-62
2022/02/02 21:45:32;;;;;;;7.95;4.65;;;;;;;5.03;93.00;98019.66;5083117;28;20066;-61
2022/02/02 21:48:01;;;;;;;7.47;3.88;;;;;;;5.13;92.60;98016.59;5090929;28;20683;-61
2022/02/02 21:50:41;;;;;;;7.32;4.40;;;;;;;5.10;92.10;98025.03;5083160;28;20530;-62
2022/02/02 21:53:07;;;;;;;7.45;4.63;;;;;;;5.00;92.38;98020.88;5071860;28;20044;-62
2022/02/02 21:55:34;;;;;;;7.05;4.03;;;;;;;5.10;92.19;98019.69;5084530;28;20051;-60
2022/02/02 21:58:01;;;;;;;8.73;4.13;;;;;;;4.98;91.63;98017.59;5081749;28;20113;-61
2022/02/02 22:00:32;;;;;;;7.57;4.13;;;;;;;4.98;91.66;98020.28;5086329;28;20031;-59
2022/02/02 22:02:59;;;;;;;6.40;4.32;;;;;;;4.87;91.94;98018.13;5084334;28;20335;-62
2022/02/02 22:05:25;;;;;;;10.98;5.45;;;;;;;4.81;92.13;98019.75;5080614;28;20043;-62
2022/02/02 22:07:52;;;;;;;7.07;4.45;;;;;;;4.82;92.41;98024.94;5082205;28;20040;-62
2022/02/02 22:10:20;;;;;;;8.10;5.13;;;;;;;5.03;92.80;98027.69;5081335;28;20115;-62
2022/02/02 22:12:46;;;;;;;14.50;6.07;;;;;;;5.14;92.33;98031.66;5075044;28;20052;-62
2022/02/02 22:15:20;;;;;;;8.55;5.47;;;;;;;5.17;92.43;98033.97;5094747;28;20044;-61
2022/02/02 22:17:47;;;;;;;13.82;7.05;;;;;;;5.19;91.80;98031.91;5089627;28;20564;-62
2022/02/02 22:20:16;;;;;;;11.00;6.38;;;;;;;5.22;92.37;98031.50;5067414;28;20055;-61
2022/02/02 22:22:43;;;;;;;10.20;5.60;;;;;;;5.29;92.27;98032.34;5080342;28;20044;-60
2022/02/02 22:25:11;;;;;;;10.13;5.82;;;;;;;5.33;92.37;98035.47;5087576;28;20150;-62
2022/02/02 22:27:37;;;;;;;19.08;10.63;;;;;;;5.13;92.53;98032.72;5080653;28;20044;-61
2022/02/02 22:30:06;;;;;;;12.85;7.93;;;;;;;5.13;92.72;98038.91;5080172;28;20048;-62
2022/02/02 22:32:33;;;;;;;14.00;8.80;;;;;;;5.18;92.82;98032.94;5080860;28;20039;-62
2022/02/02 22:35:00;;;;;;;13.70;7.93;;;;;;;5.22;92.34;98034.19;5093706;28;20654;-61
2022/02/02 22:37:29;;;;;;;11.88;7.05;;;;;;;5.30;92.03;98038.53;5068011;28;20052;-62
2022/02/02 22:39:56;;;;;;;10.40;6.70;;;;;;;5.47;92.10;98037.19;5100142;28;20050;-61
2022/02/02 22:42:24;;;;;;;11.52;6.95;;;;;;;5.53;91.35;98040.88;5094539;28;20048;-61
2022/02/02 22:44:54;;;;;;;11.60;7.75;;;;;;;5.31;91.83;98038.34;5081395;28;20040;-59
2022/02/02 22:47:21;;;;;;;13.98;7.68;;;;;;;5.20;92.47;98045.13;5079405;28;20036;-61
2022/02/02 22:49:51;;;;;;;11.68;7.82;;;;;;;5.23;92.47;98043.88;5075354;28;20044;-61
2022/02/02 22:52:19;;;;;;;12.55;7.35;;;;;;;5.18;93.05;98047.19;5082979;28;20056;-60
2022/02/02 22:54:46;;;;;;;12.75;7.80;;;;;;;5.14;93.52;98040.56;5079023;28;20066;-61